sensor_id;sensor_type;location;lat;lon;timestamp;P1;durP1;ratioP1;P2;durP2;ratioP2
11490;SDS011;5802;52.832;4.758;2023-08-30T00:00:58;1.77;;;1.20;;
11490;SDS011;5802;52.832;4.758;2023-08-30T00:03:25;1.73;;;1.25;;
11490;SDS011;5802;52.832;4.758;2023-08-30T00:05:53;1.75;;;1.00;;
11490;SDS011;5802;52.832;4.758;2023-08-30T00:08:20;3.78;;;0.98;;
11490;SDS011;5802;52.832;4.758;2023-08-30T00:10:47;3.47;;;1.20;;
11490;SDS011;5802;52.832;4.758;2023-08-30T00:13:14;4.10;;;1.38;;
11490;SDS011;5802;52.832;4.758;2023-08-30T00:15:41;4.57;;;1.10;;
11490;SDS011;5802;52.832;4.758;2023-08-30T00:18:08;4.53;;;1.30;;
11490;SDS011;5802;52.832;4.758;2023-08-30T00:20:35;4.75;;;1.33;;
11490;SDS011;5802;52.832;4.758;2023-08-30T00:23:03;2.10;;;1.00;;
11490;SDS011;5802;52.832;4.758;2023-08-30T00:25:29;2.83;;;1.38;;
11490;SDS011;5802;52.832;4.758;2023-08-30T00:27:56;2.45;;;1.33;;
11490;SDS011;5802;52.832;4.758;2023-08-30T00:30:23;3.58;;;1.35;;
11490;SDS011;5802;52.832;4.758;2023-08-30T00:32:49;2.15;;;1.35;;
11490;SDS011;5802;52.832;4.758;2023-08-30T00:35:16;2.05;;;1.08;;
11490;SDS011;5802;52.832;4.758;2023-08-30T00:37:43;2.72;;;1.08;;
11490;SDS011;5802;52.832;4.758;2023-08-30T00:40:10;4.70;;;1.35;;
11490;SDS011;5802;52.832;4.758;2023-08-30T00:42:37;2.63;;;1.45;;
11490;SDS011;5802;52.832;4.758;2023-08-30T00:45:06;4.65;;;1.40;;
11490;SDS011;5802;52.832;4.758;2023-08-30T00:47:33;1.38;;;1.20;;
11490;SDS011;5802;52.832;4.758;2023-08-30T00:50:00;3.55;;;1.27;;
11490;SDS011;5802;52.832;4.758;2023-08-30T00:52:30;2.13;;;1.20;;
11490;SDS011;5802;52.832;4.758;2023-08-30T00:54:57;3.58;;;1.02;;
11490;SDS011;5802;52.832;4.758;2023-08-30T00:57:26;4.75;;;1.40;;
11490;SDS011;5802;52.832;4.758;2023-08-30T00:59:53;2.15;;;1.23;;
11490;SDS011;5802;52.832;4.758;2023-08-30T01:02:20;2.72;;;1.20;;
11490;SDS011;5802;52.832;4.758;2023-08-30T01:04:47;2.05;;;0.90;;
11490;SDS011;5802;52.832;4.758;2023-08-30T01:07:15;2.67;;;1.35;;
11490;SDS011;5802;52.832;4.758;2023-08-30T01:09:41;3.05;;;1.35;;
11490;SDS011;5802;52.832;4.758;2023-08-30T01:12:09;2.70;;;1.23;;
11490;SDS011;5802;52.832;4.758;2023-08-30T01:14:44;2.97;;;1.40;;
11490;SDS011;5802;52.832;4.758;2023-08-30T01:17:18;2.25;;;1.15;;
11490;SDS011;5802;52.832;4.758;2023-08-30T01:19:48;5.28;;;1.45;;
11490;SDS011;5802;52.832;4.758;2023-08-30T01:22:21;1.75;;;1.13;;
11490;SDS011;5802;52.832;4.758;2023-08-30T01:25:06;3.33;;;1.20;;
11490;SDS011;5802;52.832;4.758;2023-08-30T01:27:42;3.10;;;1.27;;
11490;SDS011;5802;52.832;4.758;2023-08-30T01:30:12;3.53;;;1.30;;
11490;SDS011;5802;52.832;4.758;2023-08-30T01:32:40;3.10;;;1.17;;
11490;SDS011;5802;52.832;4.758;2023-08-30T01:35:07;2.33;;;1.20;;
11490;SDS011;5802;52.832;4.758;2023-08-30T01:37:34;2.17;;;1.13;;
11490;SDS011;5802;52.832;4.758;2023-08-30T01:40:02;1.35;;;1.10;;
11490;SDS011;5802;52.832;4.758;2023-08-30T01:42:30;1.25;;;1.02;;
11490;SDS011;5802;52.832;4.758;2023-08-30T01:44:59;1.55;;;1.20;;
11490;SDS011;5802;52.832;4.758;2023-08-30T01:47:28;2.05;;;1.20;;
11490;SDS011;5802;52.832;4.758;2023-08-30T01:49:58;1.63;;;1.20;;
11490;SDS011;5802;52.832;4.758;2023-08-30T01:52:26;1.35;;;1.00;;
11490;SDS011;5802;52.832;4.758;2023-08-30T01:54:53;2.33;;;1.15;;
11490;SDS011;5802;52.832;4.758;2023-08-30T01:57:20;1.40;;;1.15;;
11490;SDS011;5802;52.832;4.758;2023-08-30T01:59:47;1.58;;;1.00;;
11490;SDS011;5802;52.832;4.758;2023-08-30T02:02:15;2.28;;;1.40;;
11490;SDS011;5802;52.832;4.758;2023-08-30T02:04:41;1.67;;;1.27;;
11490;SDS011;5802;52.832;4.758;2023-08-30T02:07:10;1.73;;;1.05;;
11490;SDS011;5802;52.832;4.758;2023-08-30T02:09:42;2.88;;;1.42;;
11490;SDS011;5802;52.832;4.758;2023-08-30T02:12:14;2.15;;;1.33;;
11490;SDS011;5802;52.832;4.758;2023-08-30T02:14:42;1.98;;;1.20;;
11490;SDS011;5802;52.832;4.758;2023-08-30T02:17:12;2.25;;;1.38;;
11490;SDS011;5802;52.832;4.758;2023-08-30T02:19:41;3.20;;;1.50;;
11490;SDS011;5802;52.832;4.758;2023-08-30T02:22:08;2.85;;;1.45;;
11490;SDS011;5802;52.832;4.758;2023-08-30T02:24:35;1.75;;;1.25;;
11490;SDS011;5802;52.832;4.758;2023-08-30T02:27:01;1.60;;;1.17;;
11490;SDS011;5802;52.832;4.758;2023-08-30T02:29:28;1.35;;;1.20;;
11490;SDS011;5802;52.832;4.758;2023-08-30T02:31:55;1.58;;;1.10;;
11490;SDS011;5802;52.832;4.758;2023-08-30T02:34:22;2.20;;;1.30;;
11490;SDS011;5802;52.832;4.758;2023-08-30T02:36:50;2.63;;;1.30;;
11490;SDS011;5802;52.832;4.758;2023-08-30T02:39:16;1.80;;;1.30;;
11490;SDS011;5802;52.832;4.758;2023-08-30T02:41:44;2.00;;;0.95;;
11490;SDS011;5802;52.832;4.758;2023-08-30T02:44:11;2.67;;;1.10;;
11490;SDS011;5802;52.832;4.758;2023-08-30T02:46:38;1.60;;;1.20;;
11490;SDS011;5802;52.832;4.758;2023-08-30T02:49:05;1.67;;;1.30;;
11490;SDS011;5802;52.832;4.758;2023-08-30T02:51:31;2.10;;;1.30;;
11490;SDS011;5802;52.832;4.758;2023-08-30T02:53:59;1.25;;;1.15;;
11490;SDS011;5802;52.832;4.758;2023-08-30T02:56:26;1.98;;;1.40;;
11490;SDS011;5802;52.832;4.758;2023-08-30T02:58:53;2.00;;;1.35;;
11490;SDS011;5802;52.832;4.758;2023-08-30T03:01:19;1.60;;;1.20;;
11490;SDS011;5802;52.832;4.758;2023-08-30T03:03:46;1.10;;;1.00;;
11490;SDS011;5802;52.832;4.758;2023-08-30T03:06:13;1.23;;;1.13;;
11490;SDS011;5802;52.832;4.758;2023-08-30T03:08:40;1.83;;;1.20;;
11490;SDS011;5802;52.832;4.758;2023-08-30T03:11:11;5.53;;;1.30;;
11490;SDS011;5802;52.832;4.758;2023-08-30T03:13:38;1.63;;;1.20;;
11490;SDS011;5802;52.832;4.758;2023-08-30T03:16:11;3.15;;;1.40;;
11490;SDS011;5802;52.832;4.758;2023-08-30T03:18:39;1.90;;;1.20;;
11490;SDS011;5802;52.832;4.758;2023-08-30T03:21:06;1.50;;;1.23;;
11490;SDS011;5802;52.832;4.758;2023-08-30T03:23:33;2.47;;;1.45;;
11490;SDS011;5802;52.832;4.758;2023-08-30T03:26:07;2.17;;;1.20;;
11490;SDS011;5802;52.832;4.758;2023-08-30T03:28:35;1.90;;;1.27;;
11490;SDS011;5802;52.832;4.758;2023-08-30T03:31:10;1.10;;;1.00;;
11490;SDS011;5802;52.832;4.758;2023-08-30T03:33:38;1.58;;;1.10;;
11490;SDS011;5802;52.832;4.758;2023-08-30T03:36:06;2.55;;;1.20;;
11490;SDS011;5802;52.832;4.758;2023-08-30T03:38:33;1.50;;;1.10;;
11490;SDS011;5802;52.832;4.758;2023-08-30T03:40:59;1.65;;;1.30;;
11490;SDS011;5802;52.832;4.758;2023-08-30T03:43:26;1.38;;;1.20;;
11490;SDS011;5802;52.832;4.758;2023-08-30T03:45:54;1.83;;;1.13;;
11490;SDS011;5802;52.832;4.758;2023-08-30T03:48:21;1.10;;;1.00;;
11490;SDS011;5802;52.832;4.758;2023-08-30T03:50:48;1.55;;;1.23;;
11490;SDS011;5802;52.832;4.758;2023-08-30T03:53:14;1.50;;;1.17;;
11490;SDS011;5802;52.832;4.758;2023-08-30T03:55:41;1.60;;;1.13;;
11490;SDS011;5802;52.832;4.758;2023-08-30T03:58:08;1.65;;;1.30;;
11490;SDS011;5802;52.832;4.758;2023-08-30T04:00:35;2.05;;;1.20;;
11490;SDS011;5802;52.832;4.758;2023-08-30T04:03:04;1.25;;;1.10;;
11490;SDS011;5802;52.832;4.758;2023-08-30T04:05:32;1.55;;;1.33;;
11490;SDS011;5802;52.832;4.758;2023-08-30T04:07:59;2.20;;;1.30;;
11490;SDS011;5802;52.832;4.758;2023-08-30T04:10:26;4.00;;;1.15;;
11490;SDS011;5802;52.832;4.758;2023-08-30T04:12:53;1.52;;;1.17;;
11490;SDS011;5802;52.832;4.758;2023-08-30T04:15:20;1.77;;;1.30;;
11490;SDS011;5802;52.832;4.758;2023-08-30T04:17:47;3.97;;;1.20;;
11490;SDS011;5802;52.832;4.758;2023-08-30T04:20:15;2.53;;;1.50;;
11490;SDS011;5802;52.832;4.758;2023-08-30T04:22:41;1.55;;;1.13;;
11490;SDS011;5802;52.832;4.758;2023-08-30T04:25:08;3.92;;;1.30;;
11490;SDS011;5802;52.832;4.758;2023-08-30T04:27:35;1.50;;;1.40;;
11490;SDS011;5802;52.832;4.758;2023-08-30T04:30:02;1.48;;;1.38;;
11490;SDS011;5802;52.832;4.758;2023-08-30T04:32:29;1.85;;;1.50;;
11490;SDS011;5802;52.832;4.758;2023-08-30T04:34:55;1.55;;;1.10;;
11490;SDS011;5802;52.832;4.758;2023-08-30T04:37:23;2.78;;;1.33;;
11490;SDS011;5802;52.832;4.758;2023-08-30T04:39:50;1.70;;;1.33;;
11490;SDS011;5802;52.832;4.758;2023-08-30T04:42:17;1.98;;;1.30;;
11490;SDS011;5802;52.832;4.758;2023-08-30T04:44:46;1.55;;;1.20;;
11490;SDS011;5802;52.832;4.758;2023-08-30T04:47:13;1.83;;;1.38;;
11490;SDS011;5802;52.832;4.758;2023-08-30T04:49:39;1.83;;;1.20;;
11490;SDS011;5802;52.832;4.758;2023-08-30T04:52:06;3.13;;;1.60;;
11490;SDS011;5802;52.832;4.758;2023-08-30T04:54:34;1.55;;;1.25;;
11490;SDS011;5802;52.832;4.758;2023-08-30T04:57:01;2.30;;;1.48;;
11490;SDS011;5802;52.832;4.758;2023-08-30T04:59:28;2.13;;;1.42;;
11490;SDS011;5802;52.832;4.758;2023-08-30T05:01:54;1.65;;;1.10;;
11490;SDS011;5802;52.832;4.758;2023-08-30T05:04:21;1.83;;;1.50;;
11490;SDS011;5802;52.832;4.758;2023-08-30T05:06:48;2.22;;;1.67;;
11490;SDS011;5802;52.832;4.758;2023-08-30T05:09:15;2.55;;;1.30;;
11490;SDS011;5802;52.832;4.758;2023-08-30T05:11:42;2.85;;;1.17;;
11490;SDS011;5802;52.832;4.758;2023-08-30T05:14:09;1.73;;;1.40;;
11490;SDS011;5802;52.832;4.758;2023-08-30T05:16:37;2.17;;;1.40;;
11490;SDS011;5802;52.832;4.758;2023-08-30T05:19:05;1.67;;;1.35;;
11490;SDS011;5802;52.832;4.758;2023-08-30T05:21:31;1.77;;;1.30;;
11490;SDS011;5802;52.832;4.758;2023-08-30T05:23:58;1.77;;;1.10;;
11490;SDS011;5802;52.832;4.758;2023-08-30T05:26:25;2.88;;;1.20;;
11490;SDS011;5802;52.832;4.758;2023-08-30T05:28:53;2.72;;;1.48;;
11490;SDS011;5802;52.832;4.758;2023-08-30T05:31:20;1.50;;;1.20;;
11490;SDS011;5802;52.832;4.758;2023-08-30T05:33:46;1.55;;;1.35;;
11490;SDS011;5802;52.832;4.758;2023-08-30T05:36:13;1.48;;;1.17;;
11490;SDS011;5802;52.832;4.758;2023-08-30T05:38:39;1.52;;;1.30;;
11490;SDS011;5802;52.832;4.758;2023-08-30T05:41:07;2.10;;;1.38;;
11490;SDS011;5802;52.832;4.758;2023-08-30T05:43:33;1.88;;;1.30;;
11490;SDS011;5802;52.832;4.758;2023-08-30T05:46:01;1.40;;;1.15;;
11490;SDS011;5802;52.832;4.758;2023-08-30T05:48:28;1.77;;;1.20;;
11490;SDS011;5802;52.832;4.758;2023-08-30T05:50:55;2.13;;;1.55;;
11490;SDS011;5802;52.832;4.758;2023-08-30T05:53:22;2.63;;;1.50;;
11490;SDS011;5802;52.832;4.758;2023-08-30T05:55:49;1.92;;;1.30;;
11490;SDS011;5802;52.832;4.758;2023-08-30T05:58:16;2.00;;;1.30;;
11490;SDS011;5802;52.832;4.758;2023-08-30T06:00:43;2.45;;;1.40;;
11490;SDS011;5802;52.832;4.758;2023-08-30T06:03:11;2.38;;;1.55;;
11490;SDS011;5802;52.832;4.758;2023-08-30T06:05:38;2.10;;;1.60;;
11490;SDS011;5802;52.832;4.758;2023-08-30T06:08:04;3.50;;;1.58;;
11490;SDS011;5802;52.832;4.758;2023-08-30T06:10:33;1.73;;;1.30;;
11490;SDS011;5802;52.832;4.758;2023-08-30T06:12:59;2.05;;;1.33;;
11490;SDS011;5802;52.832;4.758;2023-08-30T06:15:27;1.45;;;1.30;;
11490;SDS011;5802;52.832;4.758;2023-08-30T06:17:54;1.52;;;1.27;;
11490;SDS011;5802;52.832;4.758;2023-08-30T06:20:22;2.15;;;1.40;;
11490;SDS011;5802;52.832;4.758;2023-08-30T06:22:48;2.53;;;1.70;;
11490;SDS011;5802;52.832;4.758;2023-08-30T06:25:15;1.92;;;1.40;;
11490;SDS011;5802;52.832;4.758;2023-08-30T06:27:43;2.97;;;1.60;;
11490;SDS011;5802;52.832;4.758;2023-08-30T06:30:21;2.70;;;1.75;;
11490;SDS011;5802;52.832;4.758;2023-08-30T06:32:48;1.50;;;1.30;;
11490;SDS011;5802;52.832;4.758;2023-08-30T06:35:14;2.20;;;1.77;;
11490;SDS011;5802;52.832;4.758;2023-08-30T06:37:42;3.08;;;1.60;;
11490;SDS011;5802;52.832;4.758;2023-08-30T06:40:09;1.70;;;1.52;;
11490;SDS011;5802;52.832;4.758;2023-08-30T06:42:36;1.92;;;1.50;;
11490;SDS011;5802;52.832;4.758;2023-08-30T06:45:04;1.90;;;1.50;;
11490;SDS011;5802;52.832;4.758;2023-08-30T06:47:32;1.63;;;1.40;;
11490;SDS011;5802;52.832;4.758;2023-08-30T06:49:59;1.98;;;1.60;;
11490;SDS011;5802;52.832;4.758;2023-08-30T06:52:26;2.40;;;1.67;;
11490;SDS011;5802;52.832;4.758;2023-08-30T06:54:54;2.15;;;1.80;;
11490;SDS011;5802;52.832;4.758;2023-08-30T06:57:21;2.13;;;1.58;;
11490;SDS011;5802;52.832;4.758;2023-08-30T06:59:48;1.83;;;1.50;;
11490;SDS011;5802;52.832;4.758;2023-08-30T07:02:15;2.22;;;1.70;;
11490;SDS011;5802;52.832;4.758;2023-08-30T07:04:41;2.03;;;1.50;;
11490;SDS011;5802;52.832;4.758;2023-08-30T07:07:08;1.75;;;1.60;;
11490;SDS011;5802;52.832;4.758;2023-08-30T07:09:35;4.57;;;1.60;;
11490;SDS011;5802;52.832;4.758;2023-08-30T07:12:03;3.00;;;1.50;;
11490;SDS011;5802;52.832;4.758;2023-08-30T07:14:30;3.03;;;1.50;;
11490;SDS011;5802;52.832;4.758;2023-08-30T07:16:57;2.40;;;1.65;;
11490;SDS011;5802;52.832;4.758;2023-08-30T07:19:24;2.70;;;1.80;;
11490;SDS011;5802;52.832;4.758;2023-08-30T07:21:51;1.85;;;1.42;;
11490;SDS011;5802;52.832;4.758;2023-08-30T07:24:17;1.75;;;1.40;;
11490;SDS011;5802;52.832;4.758;2023-08-30T07:26:44;1.95;;;1.55;;
11490;SDS011;5802;52.832;4.758;2023-08-30T07:29:12;2.25;;;1.60;;
11490;SDS011;5802;52.832;4.758;2023-08-30T07:31:39;2.67;;;1.65;;
11490;SDS011;5802;52.832;4.758;2023-08-30T07:34:06;2.15;;;1.42;;
11490;SDS011;5802;52.832;4.758;2023-08-30T07:36:33;2.45;;;1.50;;
11490;SDS011;5802;52.832;4.758;2023-08-30T07:38:59;1.50;;;1.40;;
11490;SDS011;5802;52.832;4.758;2023-08-30T07:41:27;1.90;;;1.50;;
11490;SDS011;5802;52.832;4.758;2023-08-30T07:43:53;1.80;;;1.45;;
11490;SDS011;5802;52.832;4.758;2023-08-30T07:46:21;1.83;;;1.30;;
11490;SDS011;5802;52.832;4.758;2023-08-30T07:48:49;1.55;;;1.30;;
11490;SDS011;5802;52.832;4.758;2023-08-30T07:51:15;2.13;;;1.83;;
11490;SDS011;5802;52.832;4.758;2023-08-30T07:53:42;1.45;;;1.33;;
11490;SDS011;5802;52.832;4.758;2023-08-30T07:56:09;1.52;;;1.40;;
11490;SDS011;5802;52.832;4.758;2023-08-30T07:58:35;3.63;;;1.60;;
11490;SDS011;5802;52.832;4.758;2023-08-30T08:01:02;1.63;;;1.50;;
11490;SDS011;5802;52.832;4.758;2023-08-30T08:03:30;4.40;;;1.70;;
11490;SDS011;5802;52.832;4.758;2023-08-30T08:06:00;2.05;;;1.60;;
11490;SDS011;5802;52.832;4.758;2023-08-30T08:08:27;4.85;;;1.52;;
11490;SDS011;5802;52.832;4.758;2023-08-30T08:10:54;2.30;;;1.60;;
11490;SDS011;5802;52.832;4.758;2023-08-30T08:13:21;2.63;;;1.50;;
11490;SDS011;5802;52.832;4.758;2023-08-30T08:15:47;2.05;;;1.50;;
11490;SDS011;5802;52.832;4.758;2023-08-30T08:18:14;3.67;;;1.50;;
11490;SDS011;5802;52.832;4.758;2023-08-30T08:20:42;1.70;;;1.60;;
11490;SDS011;5802;52.832;4.758;2023-08-30T08:23:09;2.33;;;1.77;;
11490;SDS011;5802;52.832;4.758;2023-08-30T08:25:36;3.70;;;1.60;;
11490;SDS011;5802;52.832;4.758;2023-08-30T08:28:02;4.88;;;1.67;;
11490;SDS011;5802;52.832;4.758;2023-08-30T08:30:30;4.18;;;1.95;;
11490;SDS011;5802;52.832;4.758;2023-08-30T08:32:57;2.97;;;1.70;;
11490;SDS011;5802;52.832;4.758;2023-08-30T08:35:24;2.65;;;1.60;;
11490;SDS011;5802;52.832;4.758;2023-08-30T08:37:52;4.43;;;1.75;;
11490;SDS011;5802;52.832;4.758;2023-08-30T08:40:19;2.38;;;1.67;;
11490;SDS011;5802;52.832;4.758;2023-08-30T08:42:46;2.28;;;1.70;;
11490;SDS011;5802;52.832;4.758;2023-08-30T08:45:16;1.90;;;1.40;;
11490;SDS011;5802;52.832;4.758;2023-08-30T08:47:45;2.90;;;1.60;;
11490;SDS011;5802;52.832;4.758;2023-08-30T08:50:13;3.35;;;1.90;;
11490;SDS011;5802;52.832;4.758;2023-08-30T08:52:40;1.90;;;1.50;;
11490;SDS011;5802;52.832;4.758;2023-08-30T08:55:08;3.33;;;1.73;;
11490;SDS011;5802;52.832;4.758;2023-08-30T08:57:35;2.72;;;1.70;;
11490;SDS011;5802;52.832;4.758;2023-08-30T09:00:04;1.70;;;1.60;;
11490;SDS011;5802;52.832;4.758;2023-08-30T09:02:32;2.05;;;1.40;;
11490;SDS011;5802;52.832;4.758;2023-08-30T09:04:59;4.32;;;1.65;;
11490;SDS011;5802;52.832;4.758;2023-08-30T09:07:27;3.78;;;1.70;;
11490;SDS011;5802;52.832;4.758;2023-08-30T09:09:54;3.20;;;1.67;;
11490;SDS011;5802;52.832;4.758;2023-08-30T09:12:22;3.85;;;1.60;;
11490;SDS011;5802;52.832;4.758;2023-08-30T09:14:53;3.88;;;1.65;;
11490;SDS011;5802;52.832;4.758;2023-08-30T09:17:23;3.00;;;1.80;;
11490;SDS011;5802;52.832;4.758;2023-08-30T09:19:50;5.95;;;1.52;;
11490;SDS011;5802;52.832;4.758;2023-08-30T09:22:16;2.63;;;1.80;;
11490;SDS011;5802;52.832;4.758;2023-08-30T09:24:43;5.13;;;1.52;;
11490;SDS011;5802;52.832;4.758;2023-08-30T09:27:10;3.10;;;1.80;;
11490;SDS011;5802;52.832;4.758;2023-08-30T09:29:37;3.40;;;2.20;;
11490;SDS011;5802;52.832;4.758;2023-08-30T09:32:04;2.15;;;1.65;;
11490;SDS011;5802;52.832;4.758;2023-08-30T09:34:34;2.47;;;1.40;;
11490;SDS011;5802;52.832;4.758;2023-08-30T09:37:00;9.77;;;2.05;;
11490;SDS011;5802;52.832;4.758;2023-08-30T09:39:27;2.38;;;1.65;;
11490;SDS011;5802;52.832;4.758;2023-08-30T09:41:54;3.55;;;1.77;;
11490;SDS011;5802;52.832;4.758;2023-08-30T09:44:21;5.15;;;1.77;;
11490;SDS011;5802;52.832;4.758;2023-08-30T09:46:51;2.42;;;1.60;;
11490;SDS011;5802;52.832;4.758;2023-08-30T09:49:19;5.20;;;1.67;;
11490;SDS011;5802;52.832;4.758;2023-08-30T09:51:47;4.55;;;1.70;;
11490;SDS011;5802;52.832;4.758;2023-08-30T09:54:17;7.03;;;1.80;;
11490;SDS011;5802;52.832;4.758;2023-08-30T09:56:45;4.13;;;1.50;;
11490;SDS011;5802;52.832;4.758;2023-08-30T09:59:12;2.13;;;1.60;;
11490;SDS011;5802;52.832;4.758;2023-08-30T10:01:41;3.38;;;1.80;;
11490;SDS011;5802;52.832;4.758;2023-08-30T10:04:10;4.53;;;1.67;;
11490;SDS011;5802;52.832;4.758;2023-08-30T10:06:37;4.88;;;1.75;;
11490;SDS011;5802;52.832;4.758;2023-08-30T10:09:05;4.15;;;1.77;;
11490;SDS011;5802;52.832;4.758;2023-08-30T10:11:34;3.55;;;1.75;;
11490;SDS011;5802;52.832;4.758;2023-08-30T10:14:03;3.45;;;1.55;;
11490;SDS011;5802;52.832;4.758;2023-08-30T10:16:30;3.25;;;1.88;;
11490;SDS011;5802;52.832;4.758;2023-08-30T10:19:03;4.40;;;1.95;;
11490;SDS011;5802;52.832;4.758;2023-08-30T10:21:37;3.65;;;1.88;;
11490;SDS011;5802;52.832;4.758;2023-08-30T10:24:04;3.55;;;1.70;;
11490;SDS011;5802;52.832;4.758;2023-08-30T10:26:33;3.45;;;1.98;;
11490;SDS011;5802;52.832;4.758;2023-08-30T10:29:01;4.95;;;1.55;;
11490;SDS011;5802;52.832;4.758;2023-08-30T10:31:28;2.05;;;1.50;;
11490;SDS011;5802;52.832;4.758;2023-08-30T10:33:55;3.47;;;1.92;;
11490;SDS011;5802;52.832;4.758;2023-08-30T10:36:22;2.85;;;1.40;;
11490;SDS011;5802;52.832;4.758;2023-08-30T10:38:51;4.75;;;2.00;;
11490;SDS011;5802;52.832;4.758;2023-08-30T10:41:21;2.85;;;1.85;;
11490;SDS011;5802;52.832;4.758;2023-08-30T10:43:49;5.63;;;1.60;;
11490;SDS011;5802;52.832;4.758;2023-08-30T10:46:17;4.10;;;1.80;;
11490;SDS011;5802;52.832;4.758;2023-08-30T10:48:54;4.22;;;1.90;;
11490;SDS011;5802;52.832;4.758;2023-08-30T10:51:35;4.50;;;1.70;;
11490;SDS011;5802;52.832;4.758;2023-08-30T10:54:11;4.32;;;1.80;;
11490;SDS011;5802;52.832;4.758;2023-08-30T10:56:47;2.28;;;1.40;;
11490;SDS011;5802;52.832;4.758;2023-08-30T10:59:18;2.33;;;1.70;;
11490;SDS011;5802;52.832;4.758;2023-08-30T11:01:45;4.30;;;1.63;;
11490;SDS011;5802;52.832;4.758;2023-08-30T11:04:12;3.17;;;1.52;;
11490;SDS011;5802;52.832;4.758;2023-08-30T11:06:42;4.38;;;1.45;;
11490;SDS011;5802;52.832;4.758;2023-08-30T11:09:12;3.78;;;2.03;;
11490;SDS011;5802;52.832;4.758;2023-08-30T11:11:39;2.10;;;1.40;;
11490;SDS011;5802;52.832;4.758;2023-08-30T11:14:07;4.53;;;1.80;;
11490;SDS011;5802;52.832;4.758;2023-08-30T11:16:34;2.75;;;1.50;;
11490;SDS011;5802;52.832;4.758;2023-08-30T11:19:01;2.53;;;1.50;;
11490;SDS011;5802;52.832;4.758;2023-08-30T11:21:28;3.95;;;1.55;;
11490;SDS011;5802;52.832;4.758;2023-08-30T11:23:56;3.15;;;1.48;;
11490;SDS011;5802;52.832;4.758;2023-08-30T11:26:24;2.38;;;1.52;;
11490;SDS011;5802;52.832;4.758;2023-08-30T11:28:51;4.50;;;1.55;;
11490;SDS011;5802;52.832;4.758;2023-08-30T11:31:18;4.40;;;1.77;;
11490;SDS011;5802;52.832;4.758;2023-08-30T11:33:50;4.10;;;1.50;;
11490;SDS011;5802;52.832;4.758;2023-08-30T11:36:18;3.47;;;1.50;;
11490;SDS011;5802;52.832;4.758;2023-08-30T11:38:46;3.05;;;1.75;;
11490;SDS011;5802;52.832;4.758;2023-08-30T11:41:13;3.42;;;1.42;;
11490;SDS011;5802;52.832;4.758;2023-08-30T11:43:41;4.22;;;1.60;;
11490;SDS011;5802;52.832;4.758;2023-08-30T11:46:07;3.47;;;1.63;;
11490;SDS011;5802;52.832;4.758;2023-08-30T11:48:35;4.47;;;1.80;;
11490;SDS011;5802;52.832;4.758;2023-08-30T11:51:02;2.88;;;1.50;;
11490;SDS011;5802;52.832;4.758;2023-08-30T11:53:29;3.42;;;1.55;;
11490;SDS011;5802;52.832;4.758;2023-08-30T11:55:56;4.00;;;1.75;;
11490;SDS011;5802;52.832;4.758;2023-08-30T11:58:23;3.40;;;1.67;;
11490;SDS011;5802;52.832;4.758;2023-08-30T12:00:51;4.28;;;1.50;;
11490;SDS011;5802;52.832;4.758;2023-08-30T12:03:19;5.03;;;1.30;;
11490;SDS011;5802;52.832;4.758;2023-08-30T12:05:46;2.67;;;1.45;;
11490;SDS011;5802;52.832;4.758;2023-08-30T12:08:19;3.15;;;1.63;;
11490;SDS011;5802;52.832;4.758;2023-08-30T12:10:46;3.45;;;1.40;;
11490;SDS011;5802;52.832;4.758;2023-08-30T12:13:19;3.20;;;1.50;;
11490;SDS011;5802;52.832;4.758;2023-08-30T12:15:47;4.07;;;1.50;;
11490;SDS011;5802;52.832;4.758;2023-08-30T12:18:15;3.60;;;1.45;;
11490;SDS011;5802;52.832;4.758;2023-08-30T12:20:50;2.75;;;1.25;;
11490;SDS011;5802;52.832;4.758;2023-08-30T12:23:21;2.28;;;1.20;;
11490;SDS011;5802;52.832;4.758;2023-08-30T12:26:01;4.20;;;1.67;;
11490;SDS011;5802;52.832;4.758;2023-08-30T12:28:30;2.50;;;1.25;;
11490;SDS011;5802;52.832;4.758;2023-08-30T12:30:58;3.63;;;1.25;;
11490;SDS011;5802;52.832;4.758;2023-08-30T12:33:26;2.50;;;1.20;;
11490;SDS011;5802;52.832;4.758;2023-08-30T12:35:54;2.40;;;1.00;;
11490;SDS011;5802;52.832;4.758;2023-08-30T12:38:21;3.95;;;1.25;;
11490;SDS011;5802;52.832;4.758;2023-08-30T12:40:48;3.05;;;1.10;;
11490;SDS011;5802;52.832;4.758;2023-08-30T12:43:17;2.33;;;0.98;;
11490;SDS011;5802;52.832;4.758;2023-08-30T12:45:45;1.67;;;0.98;;
11490;SDS011;5802;52.832;4.758;2023-08-30T12:48:12;2.55;;;1.17;;
11490;SDS011;5802;52.832;4.758;2023-08-30T12:50:43;3.28;;;1.00;;
11490;SDS011;5802;52.832;4.758;2023-08-30T12:53:12;1.67;;;1.05;;
11490;SDS011;5802;52.832;4.758;2023-08-30T12:55:40;1.67;;;1.08;;
11490;SDS011;5802;52.832;4.758;2023-08-30T12:58:06;2.90;;;1.15;;
11490;SDS011;5802;52.832;4.758;2023-08-30T13:00:34;2.72;;;1.25;;
11490;SDS011;5802;52.832;4.758;2023-08-30T13:03:01;2.78;;;1.00;;
11490;SDS011;5802;52.832;4.758;2023-08-30T13:05:28;2.45;;;1.00;;
11490;SDS011;5802;52.832;4.758;2023-08-30T13:07:57;4.43;;;1.25;;
11490;SDS011;5802;52.832;4.758;2023-08-30T13:10:24;2.63;;;1.35;;
11490;SDS011;5802;52.832;4.758;2023-08-30T13:12:50;3.22;;;1.33;;
11490;SDS011;5802;52.832;4.758;2023-08-30T13:15:17;2.00;;;1.20;;
11490;SDS011;5802;52.832;4.758;2023-08-30T13:17:44;3.47;;;1.10;;
11490;SDS011;5802;52.832;4.758;2023-08-30T13:20:11;2.35;;;1.10;;
11490;SDS011;5802;52.832;4.758;2023-08-30T13:22:40;2.88;;;1.23;;
11490;SDS011;5802;52.832;4.758;2023-08-30T13:25:08;1.83;;;1.10;;
11490;SDS011;5802;52.832;4.758;2023-08-30T13:27:35;2.03;;;0.98;;
11490;SDS011;5802;52.832;4.758;2023-08-30T13:30:01;1.77;;;1.00;;
11490;SDS011;5802;52.832;4.758;2023-08-30T13:32:28;1.85;;;1.00;;
11490;SDS011;5802;52.832;4.758;2023-08-30T13:34:55;2.55;;;1.08;;
11490;SDS011;5802;52.832;4.758;2023-08-30T13:37:22;3.75;;;1.00;;
11490;SDS011;5802;52.832;4.758;2023-08-30T13:39:49;3.08;;;1.17;;
11490;SDS011;5802;52.832;4.758;2023-08-30T13:42:17;3.58;;;1.20;;
11490;SDS011;5802;52.832;4.758;2023-08-30T13:44:44;2.30;;;0.90;;
11490;SDS011;5802;52.832;4.758;2023-08-30T13:47:10;3.65;;;1.10;;
11490;SDS011;5802;52.832;4.758;2023-08-30T13:49:37;2.30;;;1.10;;
11490;SDS011;5802;52.832;4.758;2023-08-30T13:52:04;2.25;;;1.00;;
11490;SDS011;5802;52.832;4.758;2023-08-30T13:54:32;1.42;;;0.85;;
11490;SDS011;5802;52.832;4.758;2023-08-30T13:56:59;3.88;;;1.10;;
11490;SDS011;5802;52.832;4.758;2023-08-30T13:59:27;1.45;;;0.90;;
11490;SDS011;5802;52.832;4.758;2023-08-30T14:01:55;1.75;;;0.70;;
11490;SDS011;5802;52.832;4.758;2023-08-30T14:04:23;2.00;;;0.63;;
11490;SDS011;5802;52.832;4.758;2023-08-30T14:06:50;1.27;;;0.70;;
11490;SDS011;5802;52.832;4.758;2023-08-30T14:09:17;3.20;;;0.85;;
11490;SDS011;5802;52.832;4.758;2023-08-30T14:11:43;3.28;;;1.10;;
11490;SDS011;5802;52.832;4.758;2023-08-30T14:14:10;1.02;;;0.88;;
11490;SDS011;5802;52.832;4.758;2023-08-30T14:16:38;1.25;;;0.80;;
11490;SDS011;5802;52.832;4.758;2023-08-30T14:19:05;2.22;;;0.82;;
11490;SDS011;5802;52.832;4.758;2023-08-30T14:21:32;2.25;;;0.90;;
11490;SDS011;5802;52.832;4.758;2023-08-30T14:23:58;1.92;;;0.80;;
11490;SDS011;5802;52.832;4.758;2023-08-30T14:26:25;1.40;;;0.90;;
11490;SDS011;5802;52.832;4.758;2023-08-30T14:28:53;2.40;;;0.90;;
11490;SDS011;5802;52.832;4.758;2023-08-30T14:31:20;2.80;;;0.90;;
11490;SDS011;5802;52.832;4.758;2023-08-30T14:33:48;1.80;;;0.90;;
11490;SDS011;5802;52.832;4.758;2023-08-30T14:36:15;3.15;;;1.05;;
11490;SDS011;5802;52.832;4.758;2023-08-30T14:38:42;1.10;;;0.80;;
11490;SDS011;5802;52.832;4.758;2023-08-30T14:41:08;1.70;;;1.00;;
11490;SDS011;5802;52.832;4.758;2023-08-30T14:43:35;3.55;;;1.00;;
11490;SDS011;5802;52.832;4.758;2023-08-30T14:46:02;3.45;;;1.00;;
11490;SDS011;5802;52.832;4.758;2023-08-30T14:48:30;1.65;;;1.05;;
11490;SDS011;5802;52.832;4.758;2023-08-30T14:50:59;3.08;;;1.00;;
11490;SDS011;5802;52.832;4.758;2023-08-30T14:53:27;4.28;;;1.10;;
11490;SDS011;5802;52.832;4.758;2023-08-30T14:55:54;2.67;;;1.00;;
11490;SDS011;5802;52.832;4.758;2023-08-30T14:58:21;3.08;;;1.00;;
11490;SDS011;5802;52.832;4.758;2023-08-30T15:00:48;5.38;;;1.33;;
11490;SDS011;5802;52.832;4.758;2023-08-30T15:03:15;2.88;;;0.90;;